MST,Max TemperatureF,Mean TemperatureF,Min TemperatureF,Max Dew PointF,MeanDew PointF,Min DewpointF,Max Humidity, Mean Humidity, Min Humidity, Max Sea Level PressureIn, Mean Sea Level PressureIn, Min Sea Level PressureIn, Max VisibilityMiles, Mean VisibilityMiles, Min VisibilityMiles, Max Wind SpeedMPH, Mean Wind SpeedMPH, Max Gust SpeedMPH,PrecipitationIn, CloudCover, Events, WindDirDegrees
2012-11-1,81,62,43,29,26,18,53,32,11,30.05,29.94,29.85,10,10,10,15,6,18,0.00,0,,169
2012-11-2,83,62,41,30,22,17,45,27,9,29.95,29.87,29.79,10,10,9,10,3,12,0.00,0,,150
2012-11-3,67,56,44,36,31,22,53,41,28,30.12,30.03,29.87,10,10,10,20,7,26,0.00,0,,348
2012-11-4,77,58,39,39,33,29,62,42,21,30.16,30.08,29.98,10,10,10,13,6,16,0.00,0,,229
2012-11-5,72,57,42,28,25,17,45,32,19,30.21,30.10,30.03,10,10,10,18,8,23,0.00,0,,315
2012-11-6,78,59,40,29,26,24,54,35,15,30.15,30.07,30.01,10,10,10,9,2,12,0.00,0,,9
2012-11-7,80,61,42,30,25,18,49,32,14,30.13,29.99,29.87,10,10,10,14,6,17,0.00,0,,208
2012-11-8,87,65,42,34,28,20,49,31,12,29.95,29.84,29.73,10,10,10,20,6,23,0.00,0,,210
2012-11-9,84,65,46,41,35,27,50,34,18,29.82,29.74,29.65,10,10,10,26,10,36,0.00,1,,221
2012-11-10,78,62,45,48,36,26,89,52,15,29.77,29.63,29.49,10,9,5,47,18,59,0.00,2,,207
2012-11-11,56,47,37,25,9,-4,52,31,10,30.29,30.03,29.75,10,10,10,25,12,33,0.00,1,,314
2012-11-12,54,41,27,8,4,-2,46,30,13,30.43,30.36,30.30,10,10,10,14,5,16,0.00,0,,223
2012-11-13,58,43,27,17,11,3,38,29,19,30.35,30.25,30.14,10,10,10,13,5,16,0.00,0,,222
2012-11-14,63,46,28,19,15,13,53,35,16,30.36,30.22,30.12,10,10,10,14,5,20,0.00,0,,239
2012-11-15,69,51,32,22,17,11,47,29,10,30.29,30.18,30.09,10,10,10,20,6,24,0.00,0,,348
2012-11-16,62,52,41,32,26,19,54,38,22,30.32,30.23,30.15,10,10,10,13,5,16,0.00,1,,307
2012-11-17,63,51,39,45,40,30,77,64,51,30.28,30.13,30.01,10,10,8,12,5,15,0.00,3,,164
2012-11-18,60,51,42,54,47,41,100,86,71,30.17,30.08,29.99,10,6,0,13,5,16,0.05,4,Fog-Rain,171
2012-11-19,74,57,40,48,37,25,100,58,16,30.22,30.13,30.04,10,6,0,16,5,22,0.00,1,Fog,295
2012-11-20,69,51,33,31,25,21,62,40,17,30.25,30.17,30.10,10,10,10,13,4,16,0.00,0,,139
2012-11-21,72,57,42,47,35,24,77,54,30,30.17,30.06,29.96,10,10,10,15,5,21,T,2,,207
2012-11-22,80,60,39,44,31,15,89,49,9,30.20,29.99,29.89,10,10,10,17,6,21,0.00,0,,318
2012-11-23,58,44,30,29,20,13,59,40,20,30.53,30.42,30.25,10,10,10,14,6,18,0.00,0,,319
2012-11-24,68,47,25,26,20,12,55,37,19,30.37,30.13,29.93,10,10,10,14,6,17,0.00,0,,175
2012-11-25,79,55,31,28,21,14,59,34,8,29.94,29.85,29.74,10,10,10,14,5,17,0.00,0,,261
2012-11-26,72,54,36,29,25,17,64,39,13,30.36,30.05,29.80,10,10,10,24,8,29,0.00,0,,39
2012-11-27,58,41,23,28,25,16,75,53,30,30.42,30.30,30.20,10,10,10,13,6,17,0.00,0,,182
2012-11-28,72,50,28,34,27,19,69,44,18,30.30,30.18,30.06,10,10,10,17,6,22,0.00,0,,180
2012-11-29,75,55,34,35,29,24,70,45,20,30.10,30.02,29.94,10,10,10,13,5,16,0.00,0,,222
2012-11-30,77,56,35,28,25,21,56,36,15,30.06,29.97,29.88,10,10,10,14,3,16,0.00,0,,173